Time;durP1;ratioP1;P1;durP2;ratioP2;P2;SDS_P1;SDS_P2;PMS_P1;PMS_P2;Temp;Humidity;BMP_temperature;BMP_pressure;BME280_temperature;BME280_humidity;BME280_pressure;Samples;Min_cycle;Max_cycle;Signal;HPM_P1;HPM_P2
2023/06/29 00:00:00;;;;;;;7.93;2.42;;;;;;;19.85;68.26;101008.91;6093880;23;20058;-72
2023/06/29 00:02:29;;;;;;;5.45;2.47;;;;;;;19.84;68.19;101010.72;6093553;23;20048;-72
2023/06/29 00:04:56;;;;;;;5.43;2.45;;;;;;;19.84;68.07;101017.81;6093831;23;20539;-72
2023/06/29 00:07:25;;;;;;;7.55;2.17;;;;;;;19.75;67.99;101005.88;6093395;23;20027;-72
2023/06/29 00:09:54;;;;;;;5.75;2.70;;;;;;;19.79;68.13;101007.44;6093015;23;20030;-72
2023/06/29 00:12:21;;;;;;;2.95;2.72;;;;;;;19.77;68.29;101007.50;6093709;23;20027;-71
2023/06/29 00:14:48;;;;;;;6.95;2.60;;;;;;;19.74;68.19;101004.19;6093548;23;20630;-72
2023/06/29 00:17:16;;;;;;;3.35;2.97;;;;;;;19.74;68.30;101006.84;6093756;23;20023;-72
2023/06/29 00:19:47;;;;;;;8.90;3.08;;;;;;;19.72;68.15;101003.41;6093738;23;20019;-72
2023/06/29 00:22:14;;;;;;;6.47;2.50;;;;;;;19.69;67.91;100998.25;6093379;23;20046;-72
2023/06/29 00:24:44;;;;;;;4.85;2.85;;;;;;;19.59;68.15;100991.72;6093477;23;20430;-72
2023/06/29 00:27:14;;;;;;;5.00;2.67;;;;;;;19.65;68.22;101007.28;6093728;23;20094;-72
2023/06/29 00:29:42;;;;;;;10.15;2.92;;;;;;;19.65;68.32;101012.59;6094017;23;20030;-72
2023/06/29 00:32:10;;;;;;;3.20;2.60;;;;;;;19.64;68.23;101001.13;6092753;23;20402;-72
2023/06/29 00:34:37;;;;;;;3.88;2.75;;;;;;;19.63;68.33;100998.56;6094000;23;20026;-72
2023/06/29 00:37:05;;;;;;;3.15;2.47;;;;;;;19.63;68.23;100998.56;6092878;23;20024;-72
2023/06/29 00:39:32;;;;;;;13.25;3.15;;;;;;;19.63;68.38;101001.22;6093829;23;20025;-72
2023/06/29 00:41:59;;;;;;;28.10;5.45;;;;;;;19.61;68.32;100996.00;6093723;23;20023;-72
2023/06/29 00:44:28;;;;;;;3.45;2.97;;;;;;;19.60;68.27;101002.22;6093803;23;20023;-72
2023/06/29 00:46:55;;;;;;;3.72;2.30;;;;;;;19.61;68.37;101003.06;6095502;23;20376;-72
2023/06/29 00:49:22;;;;;;;6.65;2.60;;;;;;;19.59;68.31;101002.31;6095137;23;20020;-71
2023/06/29 00:51:51;;;;;;;2.95;2.65;;;;;;;19.58;68.26;101001.47;6095024;23;20037;-71
2023/06/29 00:54:18;;;;;;;3.67;3.13;;;;;;;19.50;68.13;100995.72;6095123;23;20018;-71
2023/06/29 00:56:46;;;;;;;2.75;2.55;;;;;;;19.50;68.26;100991.25;6095029;23;20029;-71
2023/06/29 00:59:13;;;;;;;3.55;2.65;;;;;;;19.53;68.18;101007.00;6095316;23;20030;-71
2023/06/29 01:01:43;;;;;;;5.25;3.38;;;;;;;19.51;68.34;100995.63;6094869;23;20471;-72
2023/06/29 01:04:24;;;;;;;4.07;2.92;;;;;;;19.50;68.30;101001.84;6095159;23;20019;-72
2023/06/29 01:06:57;;;;;;;4.15;2.97;;;;;;;19.46;68.43;100997.63;6095642;23;20464;-72
2023/06/29 01:09:25;;;;;;;7.00;2.80;;;;;;;19.46;68.40;100991.50;6094916;23;20062;-72
2023/06/29 01:11:53;;;;;;;3.72;2.42;;;;;;;19.45;68.48;100990.63;6095467;23;20090;-71
2023/06/29 01:14:24;;;;;;;6.68;2.33;;;;;;;19.41;68.59;100988.22;6094846;23;20030;-72
2023/06/29 01:16:52;;;;;;;6.22;2.92;;;;;;;19.45;68.54;101000.38;6094989;23;20031;-72
2023/06/29 01:19:24;;;;;;;5.35;3.00;;;;;;;19.44;68.47;100990.69;6095154;23;20018;-71
2023/06/29 01:21:58;;;;;;;3.35;2.60;;;;;;;19.42;68.69;100985.50;6095080;23;20444;-71
2023/06/29 01:24:27;;;;;;;13.77;3.40;;;;;;;19.41;68.61;100993.50;6095313;23;20023;-71
2023/06/29 01:26:56;;;;;;;4.90;2.45;;;;;;;19.40;68.89;100997.97;6095042;23;20345;-72
2023/06/29 01:29:24;;;;;;;2.30;2.10;;;;;;;19.35;68.83;100988.53;6095062;23;20029;-73
2023/06/29 01:31:53;;;;;;;5.88;2.47;;;;;;;19.38;68.79;100991.91;6095090;23;20034;-73
2023/06/29 01:34:21;;;;;;;6.68;2.47;;;;;;;19.39;68.75;100982.16;6094712;23;20102;-71
2023/06/29 01:36:51;;;;;;;4.95;2.08;;;;;;;19.38;68.77;100983.97;6094855;23;20029;-72
2023/06/29 01:39:23;;;;;;;6.97;2.33;;;;;;;19.39;68.67;100987.47;6094999;23;20029;-71
2023/06/29 01:41:54;;;;;;;2.75;2.40;;;;;;;19.37;68.83;100982.22;6095301;23;20028;-72
2023/06/29 01:44:22;;;;;;;2.28;2.00;;;;;;;19.37;68.93;100984.88;6094483;23;20029;-72
2023/06/29 01:46:49;;;;;;;3.72;2.38;;;;;;;19.36;69.01;100985.81;6095359;23;20029;-71
2023/06/29 01:49:16;;;;;;;5.97;2.20;;;;;;;19.35;69.04;100981.44;6094528;23;20368;-72
2023/06/29 01:51:43;;;;;;;3.58;2.30;;;;;;;19.33;68.55;100981.53;6095051;23;20101;-71
2023/06/29 01:54:10;;;;;;;2.38;1.98;;;;;;;19.33;69.01;100970.09;6094404;23;20026;-71
2023/06/29 01:56:37;;;;;;;4.70;1.85;;;;;;;19.32;68.95;100973.66;6094018;23;20026;-72
2023/06/29 01:59:04;;;;;;;7.30;2.38;;;;;;;19.31;69.07;100975.44;6094467;23;20029;-72
2023/06/29 02:01:32;;;;;;;2.65;1.95;;;;;;;19.25;68.80;100966.97;6094405;23;20026;-71
2023/06/29 02:03:59;;;;;;;3.05;1.83;;;;;;;19.30;68.93;100986.16;6094993;23;20019;-73
2023/06/29 02:06:26;;;;;;;4.88;1.98;;;;;;;19.25;68.94;100974.94;6094712;23;20022;-73
2023/06/29 02:08:53;;;;;;;5.07;2.17;;;;;;;19.26;69.05;100977.47;6094185;23;20029;-73
2023/06/29 02:11:20;;;;;;;5.53;2.33;;;;;;;19.21;69.08;100978.66;6094673;23;20473;-73
2023/06/29 02:13:48;;;;;;;3.17;2.13;;;;;;;19.24;69.30;100983.78;6094224;23;20073;-73
2023/06/29 02:16:15;;;;;;;2.55;2.35;;;;;;;19.23;69.23;100990.03;6094720;23;20076;-73
2023/06/29 02:18:43;;;;;;;3.22;2.03;;;;;;;19.21;69.39;100987.47;6094251;23;20023;-73
2023/06/29 02:21:10;;;;;;;3.22;2.25;;;;;;;19.12;69.14;100973.81;6094762;23;20030;-73
2023/06/29 02:23:37;;;;;;;10.88;2.67;;;;;;;19.19;69.24;100989.34;6094184;23;20023;-73
2023/06/29 02:26:04;;;;;;;5.55;2.67;;;;;;;19.19;69.35;100985.84;6094292;23;20026;-73
2023/06/29 02:28:31;;;;;;;2.17;1.98;;;;;;;19.17;69.27;100980.59;6094218;23;20076;-73
2023/06/29 02:30:58;;;;;;;5.07;2.65;;;;;;;19.16;69.62;100978.91;6094603;23;20022;-73
2023/06/29 02:33:25;;;;;;;8.98;2.42;;;;;;;19.09;69.77;100973.03;6094552;23;20456;-73
2023/06/29 02:35:53;;;;;;;3.88;2.38;;;;;;;19.12;69.89;100971.19;6094166;23;20058;-73
2023/06/29 02:38:20;;;;;;;5.20;2.70;;;;;;;19.10;69.67;100964.19;6094145;23;20022;-73
2023/06/29 02:40:47;;;;;;;3.33;2.10;;;;;;;19.12;69.58;100965.88;6094312;23;20054;-73
2023/06/29 02:43:15;;;;;;;5.32;2.72;;;;;;;19.16;69.71;100972.75;6093902;23;20140;-73
2023/06/29 02:45:42;;;;;;;4.40;2.15;;;;;;;19.16;69.73;100976.25;6095296;23;20034;-73
2023/06/29 02:48:09;;;;;;;2.00;1.90;;;;;;;19.15;69.67;100965.72;6094221;23;20105;-73
2023/06/29 02:50:36;;;;;;;4.03;2.05;;;;;;;19.14;69.59;100964.88;6094275;23;20026;-73
2023/06/29 02:53:04;;;;;;;7.82;2.80;;;;;;;19.14;69.73;100956.94;6094108;23;20018;-74
2023/06/29 02:55:32;;;;;;;4.90;2.50;;;;;;;19.14;69.70;100956.09;6093899;23;20034;-73
2023/06/29 02:57:59;;;;;;;3.58;2.22;;;;;;;19.13;69.60;100963.19;6094204;23;20447;-73
2023/06/29 03:00:26;;;;;;;4.15;2.90;;;;;;;19.12;69.57;100971.19;6094206;23;20033;-73
2023/06/29 03:02:52;;;;;;;7.25;1.83;;;;;;;19.13;69.51;100967.63;6094394;23;20018;-73
2023/06/29 03:05:19;;;;;;;3.90;2.00;;;;;;;19.13;69.73;100962.31;6094050;23;20026;-73
2023/06/29 03:07:46;;;;;;;3.13;2.28;;;;;;;19.12;69.76;100973.81;6094047;23;20070;-73
2023/06/29 03:10:15;;;;;;;5.55;2.15;;;;;;;19.12;69.67;100976.47;6093555;23;20027;-73
2023/06/29 03:12:42;;;;;;;3.35;2.22;;;;;;;19.10;69.54;100980.06;6093998;23;20352;-73
2023/06/29 03:15:09;;;;;;;4.20;2.20;;;;;;;19.08;69.62;100981.94;6093873;23;20460;-73
2023/06/29 03:17:36;;;;;;;4.50;1.80;;;;;;;18.97;69.77;100968.38;6094154;23;20032;-73
2023/06/29 03:20:06;;;;;;;4.10;2.13;;;;;;;19.04;69.93;100975.09;6093928;23;20423;-73
2023/06/29 03:22:33;;;;;;;5.30;1.77;;;;;;;19.06;69.72;100983.78;6094265;23;20652;-73
2023/06/29 03:25:00;;;;;;;5.30;3.20;;;;;;;19.06;69.97;100989.09;6093934;23;20029;-73
2023/06/29 03:27:28;;;;;;;4.38;2.63;;;;;;;19.05;69.86;100989.19;6094045;23;20030;-73
2023/06/29 03:29:55;;;;;;;5.55;2.33;;;;;;;19.05;69.81;100987.38;6094086;23;20022;-73
2023/06/29 03:32:22;;;;;;;8.90;2.67;;;;;;;19.05;69.93;100976.78;6093584;23;20023;-73
2023/06/29 03:34:49;;;;;;;4.88;2.50;;;;;;;19.04;69.85;100979.50;6093823;23;20022;-73
2023/06/29 03:37:16;;;;;;;5.28;2.80;;;;;;;18.99;69.80;100974.47;6093243;23;20029;-73
2023/06/29 03:39:42;;;;;;;3.83;2.28;;;;;;;19.04;69.94;100990.97;6093614;23;20026;-73
2023/06/29 03:42:09;;;;;;;2.67;2.40;;;;;;;19.03;70.16;100989.25;6093798;23;20022;-73
2023/06/29 03:44:39;;;;;;;5.78;2.28;;;;;;;19.02;69.96;100984.03;6093418;23;20478;-73
2023/06/29 03:47:06;;;;;;;6.55;2.85;;;;;;;19.03;70.27;100983.94;6093562;23;20372;-73
2023/06/29 03:49:33;;;;;;;3.03;2.47;;;;;;;19.04;70.23;100979.50;6093907;23;20102;-73
2023/06/29 03:52:00;;;;;;;5.68;2.35;;;;;;;19.04;70.16;100977.75;6093729;23;20023;-72
2023/06/29 03:54:27;;;;;;;3.83;2.75;;;;;;;19.04;70.63;100975.09;6093491;23;20429;-73
2023/06/29 03:56:54;;;;;;;4.90;2.53;;;;;;;19.05;70.42;100976.78;6093813;23;20050;-73
2023/06/29 03:59:21;;;;;;;3.13;2.70;;;;;;;19.05;70.50;100966.19;6093335;23;20023;-73
2023/06/29 04:01:49;;;;;;;4.28;3.20;;;;;;;19.00;70.69;100946.19;6093985;23;20050;-72
2023/06/29 04:04:16;;;;;;;4.70;2.70;;;;;;;19.07;70.73;100959.03;6093481;23;20029;-73
2023/06/29 04:06:43;;;;;;;5.95;2.83;;;;;;;19.07;71.00;100953.75;6093702;23;20078;-73
2023/06/29 04:09:11;;;;;;;3.40;2.17;;;;;;;19.09;71.13;100954.50;6093901;23;20339;-73
2023/06/29 04:11:38;;;;;;;6.85;2.60;;;;;;;19.10;71.10;100958.03;6094015;23;20023;-73
2023/06/29 04:14:05;;;;;;;11.60;2.95;;;;;;;19.12;71.24;100965.88;6093721;23;20347;-72
2023/06/29 04:16:32;;;;;;;4.65;2.70;;;;;;;19.12;71.27;100958.78;6093546;23;20027;-72
2023/06/29 04:19:00;;;;;;;5.05;2.25;;;;;;;19.13;71.23;100959.69;6093803;23;20368;-72
2023/06/29 04:21:27;;;;;;;4.03;2.33;;;;;;;19.14;71.24;100956.94;6094812;23;20033;-73
2023/06/29 04:23:54;;;;;;;8.02;2.67;;;;;;;19.15;71.30;100955.97;6095981;23;20347;-72
2023/06/29 04:26:22;;;;;;;5.40;2.63;;;;;;;19.17;71.52;100961.22;6095685;23;20022;-72
2023/06/29 04:28:50;;;;;;;5.70;2.70;;;;;;;19.10;71.41;100948.28;6095830;23;20097;-72
2023/06/29 04:31:17;;;;;;;2.95;2.75;;;;;;;19.20;71.63;100961.06;6095635;23;20030;-72
2023/06/29 04:33:44;;;;;;;7.57;2.53;;;;;;;19.19;71.67;100960.22;6095874;23;20022;-73
2023/06/29 04:36:13;;;;;;;3.40;2.78;;;;;;;19.24;71.83;100967.91;6094767;23;20026;-72
2023/06/29 04:38:40;;;;;;;4.97;3.42;;;;;;;19.22;71.85;100967.13;6095776;23;20022;-73
2023/06/29 04:41:07;;;;;;;4.25;2.60;;;;;;;19.27;72.03;100973.06;6095034;23;20029;-73
2023/06/29 04:43:36;;;;;;;3.30;2.80;;;;;;;19.30;72.17;100973.75;6095597;23;20045;-73
2023/06/29 04:46:03;;;;;;;5.30;2.67;;;;;;;19.32;72.02;100966.59;6095301;23;20392;-72
2023/06/29 04:48:37;;;;;;;4.90;2.72;;;;;;;19.36;72.06;100977.88;6095266;23;20566;-73
2023/06/29 04:51:05;;;;;;;4.13;2.85;;;;;;;19.39;72.18;100968.91;6095231;23;20023;-75
2023/06/29 04:53:34;;;;;;;7.38;4.28;;;;;;;19.44;72.28;100975.69;6095577;23;20085;-75
2023/06/29 04:56:01;;;;;;;7.70;3.22;;;;;;;19.48;72.11;100971.94;6094999;23;20030;-72
2023/06/29 04:58:29;;;;;;;6.88;3.22;;;;;;;19.51;71.95;100974.41;6095172;23;20033;-73
2023/06/29 05:00:56;;;;;;;5.45;2.85;;;;;;;19.57;71.96;100980.34;6094911;23;20026;-73
2023/06/29 05:03:24;;;;;;;4.32;2.55;;;;;;;19.62;71.79;100976.50;6095496;23;20301;-73
2023/06/29 05:05:51;;;;;;;2.85;2.17;;;;;;;19.65;71.64;100970.19;6095382;23;20026;-73
2023/06/29 05:08:18;;;;;;;3.28;2.13;;;;;;;19.72;71.39;100969.81;6095360;23;20027;-73
2023/06/29 05:10:47;;;;;;;3.63;2.40;;;;;;;19.76;71.50;100962.56;6095776;23;20018;-73
2023/06/29 05:13:14;;;;;;;4.60;2.42;;;;;;;19.82;71.48;100966.66;6095652;23;20025;-73
2023/06/29 05:15:41;;;;;;;4.05;1.70;;;;;;;19.84;70.92;100959.50;6095170;23;20074;-72
2023/06/29 05:18:07;;;;;;;4.80;3.13;;;;;;;19.82;71.31;100959.56;6094937;23;20022;-73
2023/06/29 05:20:34;;;;;;;3.78;2.40;;;;;;;19.95;71.32;100973.00;6095035;23;20344;-73
2023/06/29 05:23:01;;;;;;;2.70;2.20;;;;;;;19.97;71.05;100963.19;6095181;23;20023;-73
2023/06/29 05:25:28;;;;;;;10.68;2.47;;;;;;;20.02;71.64;100961.13;6094954;23;20472;-73
2023/06/29 05:27:57;;;;;;;4.25;2.50;;;;;;;20.07;71.23;100966.19;6095194;23;20028;-74
2023/06/29 05:30:24;;;;;;;10.02;3.92;;;;;;;20.12;70.87;100970.31;6094817;23;20070;-75
2023/06/29 05:32:51;;;;;;;2.63;2.42;;;;;;;20.18;70.66;100969.97;6094958;23;20343;-74
2023/06/29 05:35:18;;;;;;;7.85;3.20;;;;;;;20.24;70.79;100968.75;6095041;23;20022;-74
2023/06/29 05:37:47;;;;;;;10.80;2.55;;;;;;;20.30;71.07;100962.25;6095104;23;20456;-75
2023/06/29 05:40:15;;;;;;;6.65;2.63;;;;;;;20.37;70.94;100966.25;6094863;23;20097;-75
2023/06/29 05:42:42;;;;;;;4.45;2.83;;;;;;;20.43;70.44;100974.75;6094931;23;20057;-74
2023/06/29 05:45:11;;;;;;;3.70;2.92;;;;;;;20.52;70.63;100969.84;6095088;23;20093;-74
2023/06/29 05:47:37;;;;;;;7.03;2.42;;;;;;;20.56;70.64;100963.47;6094871;23;20022;-74
2023/06/29 05:50:06;;;;;;;4.22;2.63;;;;;;;20.66;70.79;100967.28;6094740;23;20093;-74
2023/06/29 05:52:34;;;;;;;4.82;2.55;;;;;;;20.70;70.49;100960.88;6094825;23;20097;-74
2023/06/29 05:55:01;;;;;;;7.63;2.70;;;;;;;20.78;70.41;100958.63;6094973;23;20095;-74
2023/06/29 05:57:28;;;;;;;5.15;2.58;;;;;;;20.88;70.00;100970.41;6094324;23;20115;-74
2023/06/29 05:59:55;;;;;;;4.10;2.47;;;;;;;20.95;69.77;100964.75;6094925;23;20057;-75
2023/06/29 06:02:23;;;;;;;3.22;2.58;;;;;;;21.03;69.84;100962.47;6094533;23;20019;-75
2023/06/29 06:04:50;;;;;;;2.50;2.40;;;;;;;21.09;69.82;100959.50;6094793;23;20022;-76
2023/06/29 06:07:28;;;;;;;6.53;2.95;;;;;;;21.18;69.48;100956.28;6094864;23;20026;-77
2023/06/29 06:09:55;;;;;;;9.20;3.92;;;;;;;21.25;68.89;100962.06;6095248;23;20030;-76
2023/06/29 06:12:22;;;;;;;6.20;2.92;;;;;;;21.30;68.42;100950.22;6094273;23;20026;-76
2023/06/29 06:14:49;;;;;;;2.95;2.40;;;;;;;21.37;67.84;100949.88;6095068;23;20339;-76
2023/06/29 06:17:16;;;;;;;4.60;2.22;;;;;;;21.42;67.62;100942.47;6094084;23;20029;-76
2023/06/29 06:19:44;;;;;;;3.85;2.72;;;;;;;21.50;67.28;100945.53;6094390;23;20033;-76
2023/06/29 06:22:11;;;;;;;7.05;2.75;;;;;;;21.56;67.33;100945.13;6094285;23;20033;-76
2023/06/29 06:24:38;;;;;;;5.85;2.70;;;;;;;21.64;67.01;100953.50;6094220;23;20523;-77
2023/06/29 06:27:06;;;;;;;4.88;3.45;;;;;;;21.66;67.45;100938.31;6094387;23;20026;-76
2023/06/29 06:29:33;;;;;;;3.97;2.30;;;;;;;21.77;66.61;100957.13;6094830;23;20026;-77
2023/06/29 06:32:00;;;;;;;2.42;2.22;;;;;;;21.84;66.34;100959.38;6094420;23;20029;-76
2023/06/29 06:34:30;;;;;;;5.55;2.63;;;;;;;21.86;65.86;100955.69;6094543;23;20057;-76
2023/06/29 06:36:59;;;;;;;4.40;2.28;;;;;;;21.94;64.85;100945.41;6094414;23;20097;-73
2023/06/29 06:39:26;;;;;;;7.78;2.17;;;;;;;21.99;64.98;100950.44;6093976;23;20033;-73
2023/06/29 06:41:53;;;;;;;7.03;2.90;;;;;;;22.04;64.28;100945.66;6094121;23;20490;-73
2023/06/29 06:44:20;;;;;;;3.83;2.65;;;;;;;22.10;64.07;100955.06;6093728;23;20049;-73
2023/06/29 06:46:47;;;;;;;7.05;2.40;;;;;;;22.13;64.32;100950.41;6093685;23;20097;-72
2023/06/29 06:49:14;;;;;;;7.30;3.15;;;;;;;22.20;64.03;100949.09;6094310;23;20022;-72
2023/06/29 06:51:41;;;;;;;7.63;2.50;;;;;;;22.26;63.97;100947.00;6094103;23;20030;-72
2023/06/29 06:54:09;;;;;;;2.90;2.70;;;;;;;22.32;64.05;100949.25;6094342;23;20041;-72
2023/06/29 06:56:37;;;;;;;9.90;4.65;;;;;;;22.38;64.55;100948.84;6093859;23;20029;-72
2023/06/29 06:59:05;;;;;;;3.53;3.03;;;;;;;22.45;63.87;100947.50;6093788;23;20026;-71
2023/06/29 07:01:32;;;;;;;8.48;3.65;;;;;;;22.53;64.17;100947.00;6094097;23;20078;-72
2023/06/29 07:03:59;;;;;;;7.22;2.60;;;;;;;22.62;63.34;100949.03;6093865;23;20028;-72
2023/06/29 07:06:30;;;;;;;5.35;2.92;;;;;;;22.68;63.53;100938.84;6094218;23;20022;-72
2023/06/29 07:08:59;;;;;;;8.07;2.97;;;;;;;22.82;63.30;100939.72;6093570;23;20168;-72
2023/06/29 07:11:27;;;;;;;2.95;2.75;;;;;;;22.93;63.12;100942.50;6093922;23;20023;-72
2023/06/29 07:13:54;;;;;;;3.78;2.88;;;;;;;23.04;62.02;100945.34;6093862;23;20030;-71
2023/06/29 07:16:21;;;;;;;10.23;3.15;;;;;;;23.18;61.75;100946.22;6093881;23;20022;-73
2023/06/29 07:19:03;;;;;;;3.38;2.90;;;;;;;23.30;61.72;100942.69;6093913;23;20022;-72
2023/06/29 07:21:30;;;;;;;5.18;2.55;;;;;;;23.38;61.21;100937.69;6093562;23;20089;-71
2023/06/29 07:23:56;;;;;;;5.93;2.92;;;;;;;23.45;60.68;100931.00;6093890;23;20022;-72
2023/06/29 07:26:23;;;;;;;2.83;2.63;;;;;;;23.57;59.81;100932.78;6093355;23;20037;-72
2023/06/29 07:28:52;;;;;;;5.55;3.10;;;;;;;23.77;59.33;100941.22;6094256;23;20054;-72
2023/06/29 07:31:19;;;;;;;3.25;3.00;;;;;;;23.89;59.72;100932.34;6093379;23;20018;-72
2023/06/29 07:33:46;;;;;;;5.05;3.00;;;;;;;23.99;58.89;100936.06;6093760;23;20022;-73
2023/06/29 07:36:13;;;;;;;5.25;3.05;;;;;;;24.12;58.26;100935.16;6093571;23;20023;-72
2023/06/29 07:38:40;;;;;;;3.63;2.53;;;;;;;24.24;57.63;100936.91;6094543;23;20029;-72
2023/06/29 07:41:09;;;;;;;6.18;3.08;;;;;;;24.34;57.74;100932.63;6093348;23;20024;-72
2023/06/29 07:43:35;;;;;;;3.10;2.85;;;;;;;24.45;57.40;100929.19;6094061;23;20037;-71
2023/06/29 07:46:04;;;;;;;3.88;3.08;;;;;;;24.55;56.54;100918.66;6093700;23;20019;-72
2023/06/29 07:48:31;;;;;;;5.05;3.13;;;;;;;24.66;56.48;100924.06;6093744;23;20101;-72
2023/06/29 07:50:58;;;;;;;5.75;3.28;;;;;;;24.75;55.88;100922.50;6093405;23;20022;-72
2023/06/29 07:53:26;;;;;;;4.28;2.97;;;;;;;24.83;55.97;100917.44;6094036;23;20061;-72
2023/06/29 07:55:53;;;;;;;2.92;2.67;;;;;;;24.92;55.96;100922.06;6094849;23;20466;-72
2023/06/29 07:58:19;;;;;;;6.05;3.47;;;;;;;25.00;54.82;100910.78;6095846;23;20048;-72
2023/06/29 08:00:46;;;;;;;3.35;2.85;;;;;;;25.08;54.90;100914.59;6095658;23;20148;-72
2023/06/29 08:03:15;;;;;;;5.57;3.10;;;;;;;25.16;54.75;100911.34;6095710;23;20028;-72
2023/06/29 08:05:42;;;;;;;5.57;3.28;;;;;;;25.20;54.79;100904.78;6096019;23;20023;-72
2023/06/29 08:08:09;;;;;;;5.43;2.95;;;;;;;25.28;54.67;100912.22;6095804;23;20026;-71
2023/06/29 08:10:36;;;;;;;8.10;2.80;;;;;;;25.33;53.95;100902.88;6095595;23;20097;-72
2023/06/29 08:13:03;;;;;;;4.53;2.70;;;;;;;25.41;53.46;100902.25;6095654;23;20486;-72
2023/06/29 08:15:30;;;;;;;4.57;2.22;;;;;;;25.49;53.57;100907.00;6095353;23;20018;-72
2023/06/29 08:17:56;;;;;;;4.95;2.83;;;;;;;25.54;53.47;100904.81;6096096;23;20029;-72
2023/06/29 08:20:25;;;;;;;6.32;2.90;;;;;;;25.63;53.09;100903.22;6095317;23;20023;-72
2023/06/29 08:22:52;;;;;;;4.22;3.08;;;;;;;25.69;53.34;100906.25;6095518;23;20018;-73
2023/06/29 08:25:21;;;;;;;4.25;3.17;;;;;;;25.75;52.35;100900.41;6095714;23;20022;-72
2023/06/29 08:27:49;;;;;;;3.08;2.58;;;;;;;25.79;52.08;100899.19;6096016;23;20114;-71
2023/06/29 08:30:16;;;;;;;3.08;2.50;;;;;;;25.79;51.56;100883.16;6095348;23;20022;-72
2023/06/29 08:32:43;;;;;;;5.43;2.67;;;;;;;25.94;51.39;100896.28;6095873;23;20029;-72
2023/06/29 08:35:11;;;;;;;3.33;3.03;;;;;;;26.00;51.40;100898.47;6095625;23;20025;-72
2023/06/29 08:37:39;;;;;;;2.88;2.67;;;;;;;26.06;52.11;100894.44;6094905;23;20028;-72
2023/06/29 08:40:07;;;;;;;4.03;2.50;;;;;;;26.11;50.87;100887.72;6095240;23;20026;-72
2023/06/29 08:42:37;;;;;;;3.47;3.20;;;;;;;26.16;51.21;100896.22;6095238;23;20069;-72
2023/06/29 08:45:05;;;;;;;5.75;3.10;;;;;;;26.20;50.61;100889.63;6095376;23;20460;-72
2023/06/29 08:47:34;;;;;;;3.50;2.65;;;;;;;26.25;50.31;100882.06;6095372;23;20105;-71
2023/06/29 08:50:03;;;;;;;2.55;2.45;;;;;;;26.31;49.83;100887.91;6095444;23;20028;-72
2023/06/29 08:52:33;;;;;;;4.00;2.85;;;;;;;26.37;48.62;100887.41;6095480;23;20401;-72
2023/06/29 08:55:02;;;;;;;6.05;2.63;;;;;;;26.42;48.96;100885.19;6096042;23;20022;-72
2023/06/29 08:57:31;;;;;;;3.10;2.67;;;;;;;26.46;48.65;100887.47;6095274;23;20023;-71
2023/06/29 08:59:59;;;;;;;3.35;2.53;;;;;;;26.48;49.18;100890.03;6095958;23;20019;-71
2023/06/29 09:02:26;;;;;;;3.53;2.50;;;;;;;26.43;48.76;100882.38;6095137;23;20022;-72
2023/06/29 09:04:53;;;;;;;7.28;2.65;;;;;;;26.50;48.83;100898.84;6095250;23;20090;-72
2023/06/29 09:07:20;;;;;;;4.88;2.95;;;;;;;26.53;48.44;100890.53;6094815;23;20029;-72
2023/06/29 09:09:47;;;;;;;4.72;2.55;;;;;;;26.57;47.85;100894.63;6095619;23;20026;-71
2023/06/29 09:12:15;;;;;;;3.38;3.08;;;;;;;26.60;47.64;100894.38;6095264;23;20024;-74
2023/06/29 09:14:44;;;;;;;4.28;3.05;;;;;;;26.61;46.95;100896.09;6095861;23;20510;-72
2023/06/29 09:17:15;;;;;;;3.75;3.42;;;;;;;26.65;46.67;100892.16;6095450;23;20026;-72
2023/06/29 09:19:51;;;;;;;3.92;3.28;;;;;;;26.69;45.98;100890.06;6094874;23;20030;-72
2023/06/29 09:22:21;;;;;;;5.32;3.60;;;;;;;26.71;46.85;100888.13;6095173;23;20029;-72
2023/06/29 09:24:48;;;;;;;3.83;3.17;;;;;;;26.76;46.01;100888.59;6095010;23;20026;-72
2023/06/29 09:27:17;;;;;;;3.58;3.30;;;;;;;26.79;46.21;100879.44;6095020;23;20026;-73
2023/06/29 09:29:51;;;;;;;3.05;2.85;;;;;;;26.81;47.23;100883.69;6095458;23;20027;-72
2023/06/29 09:32:18;;;;;;;3.53;3.22;;;;;;;26.85;46.27;100881.59;6095227;23;20029;-73
2023/06/29 09:34:46;;;;;;;3.30;2.97;;;;;;;26.89;46.96;100896.41;6094383;23;20033;-72
2023/06/29 09:37:15;;;;;;;5.32;2.88;;;;;;;26.92;46.81;100888.97;6094671;23;20026;-72
2023/06/29 09:39:50;;;;;;;5.80;3.03;;;;;;;26.98;46.31;100887.63;6094406;23;20496;-73
2023/06/29 09:42:20;;;;;;;2.83;2.63;;;;;;;27.02;46.56;100883.66;6094771;23;20129;-72
2023/06/29 09:44:47;;;;;;;6.20;2.45;;;;;;;27.05;47.28;100885.25;6094790;23;20456;-72
2023/06/29 09:47:13;;;;;;;3.65;2.72;;;;;;;27.06;47.40;100879.72;6095211;23;20030;-72
2023/06/29 09:49:47;;;;;;;2.90;2.70;;;;;;;27.09;47.64;100882.16;6094830;23;20615;-72
2023/06/29 09:52:15;;;;;;;2.60;2.20;;;;;;;27.12;48.05;100876.53;6094663;23;20026;-72
2023/06/29 09:54:43;;;;;;;2.42;2.05;;;;;;;27.14;47.36;100876.41;6095199;23;20253;-72
2023/06/29 09:57:10;;;;;;;6.72;2.47;;;;;;;27.23;47.13;100874.78;6095337;23;20102;-72
2023/06/29 09:59:41;;;;;;;7.32;1.80;;;;;;;27.27;46.92;100881.59;6094849;23;20026;-72
2023/06/29 10:02:08;;;;;;;2.72;2.53;;;;;;;27.29;46.72;100879.59;6094756;23;20687;-72
2023/06/29 10:04:35;;;;;;;7.57;2.33;;;;;;;27.32;47.45;100890.06;6094789;23;20030;-72
2023/06/29 10:07:07;;;;;;;1.70;1.60;;;;;;;27.28;47.08;100872.53;6094961;23;20050;-72
2023/06/29 10:09:38;;;;;;;3.30;1.88;;;;;;;27.36;47.00;100880.78;6094119;23;20061;-72
2023/06/29 10:12:08;;;;;;;2.05;1.95;;;;;;;27.39;46.98;100885.88;6094925;23;20029;-72
2023/06/29 10:14:37;;;;;;;4.15;1.85;;;;;;;27.39;46.20;100877.81;6094781;23;20033;-72
2023/06/29 10:17:09;;;;;;;3.17;1.52;;;;;;;27.42;46.52;100882.91;6094135;23;20543;-72
2023/06/29 10:19:39;;;;;;;3.42;1.88;;;;;;;27.45;46.98;100879.97;6094689;23;20022;-72
2023/06/29 10:22:08;;;;;;;3.92;2.03;;;;;;;27.47;45.91;100877.16;6094075;23;20022;-72
2023/06/29 10:24:40;;;;;;;3.97;1.92;;;;;;;27.47;46.01;100875.31;6094372;23;20022;-72
2023/06/29 10:27:08;;;;;;;4.90;1.90;;;;;;;27.47;45.83;100864.59;6094160;23;20026;-72
2023/06/29 10:29:43;;;;;;;6.15;1.60;;;;;;;27.50;45.48;100852.75;6094628;23;20026;-72
2023/06/29 10:32:30;;;;;;;1.98;1.88;;;;;;;27.52;45.94;100859.66;6094205;23;20026;-72
2023/06/29 10:35:10;;;;;;;3.15;1.85;;;;;;;27.54;45.43;100855.00;6094051;23;20037;-72
2023/06/29 10:37:38;;;;;;;2.03;1.92;;;;;;;27.54;45.20;100852.31;6094003;23;20026;-72
2023/06/29 10:40:14;;;;;;;3.83;2.70;;;;;;;27.51;44.72;100844.53;6093930;23;20333;-72
2023/06/29 10:42:55;;;;;;;2.85;2.65;;;;;;;27.55;44.87;100854.03;6094289;23;20029;-72
2023/06/29 10:45:35;;;;;;;6.25;2.50;;;;;;;27.55;44.89;100848.66;6094317;23;20019;-72
2023/06/29 10:48:12;;;;;;;2.15;1.95;;;;;;;27.57;45.16;100846.66;6094211;23;20022;-72
2023/06/29 10:50:41;;;;;;;3.85;2.53;;;;;;;27.57;44.72;100843.97;6093878;23;20026;-72
2023/06/29 10:53:11;;;;;;;2.03;1.90;;;;;;;27.58;43.76;100848.38;6094292;23;20023;-72
2023/06/29 10:55:47;;;;;;;3.17;2.10;;;;;;;27.59;43.50;100851.91;6093813;23;20029;-72
2023/06/29 10:58:18;;;;;;;5.22;2.03;;;;;;;27.59;43.33;100843.84;6093831;23;20057;-72
2023/06/29 11:00:45;;;;;;;2.92;1.50;;;;;;;27.59;42.60;100846.53;6094394;23;20022;-72
2023/06/29 11:03:14;;;;;;;1.95;1.33;;;;;;;27.56;41.53;100834.25;6094509;23;20101;-72
2023/06/29 11:05:41;;;;;;;2.67;1.45;;;;;;;27.53;41.74;100829.16;6094241;23;20381;-72
2023/06/29 11:08:08;;;;;;;5.40;1.00;;;;;;;27.54;41.44;100821.94;6094398;23;20030;-72
2023/06/29 11:10:36;;;;;;;1.42;1.23;;;;;;;27.54;40.69;100821.94;6093907;23;20029;-72
2023/06/29 11:13:09;;;;;;;3.20;1.00;;;;;;;27.50;40.13;100810.66;6093909;23;20093;-72
2023/06/29 11:15:36;;;;;;;1.20;1.10;;;;;;;27.52;40.49;100811.38;6093790;23;20054;-73
2023/06/29 11:18:05;;;;;;;1.50;0.80;;;;;;;27.53;40.75;100807.69;6093998;23;20019;-72
2023/06/29 11:20:34;;;;;;;3.58;0.95;;;;;;;27.53;40.73;100817.59;6093894;23;20026;-72
2023/06/29 11:23:02;;;;;;;1.25;1.20;;;;;;;27.53;41.05;100813.06;6093625;23;20085;-72
2023/06/29 11:25:30;;;;;;;2.22;1.05;;;;;;;27.52;41.08;100800.63;6094055;23;20052;-72
2023/06/29 11:27:57;;;;;;;3.65;0.93;;;;;;;27.54;41.83;100803.16;6093870;23;20058;-72